Time;durP1;ratioP1;P1;durP2;ratioP2;P2;SDS_P1;SDS_P2;PMS_P1;PMS_P2;Temp;Humidity;BMP_temperature;BMP_pressure;BME280_temperature;BME280_humidity;BME280_pressure;Samples;Min_cycle;Max_cycle;Signal;HPM_P1;HPM_P2
2023/12/17 00:02:59;;;;;;;39.97;13.60;;;;;;;;;;6092635;23;20189;-90
2023/12/17 00:06:04;;;;;;;38.93;14.53;;;;;;;;;;6093693;23;20245;-91
2023/12/17 00:09:09;;;;;;;30.40;13.27;;;;;;;;;;6093063;23;20177;-91
2023/12/17 00:12:15;;;;;;;31.30;13.63;;;;;;;;;;6094320;23;20165;-90
2023/12/17 00:15:20;;;;;;;29.93;14.27;;;;;;;;;;6091717;23;20174;-89
2023/12/17 00:18:26;;;;;;;31.57;14.30;;;;;;;;;;6108062;23;20253;-90
2023/12/17 00:21:31;;;;;;;32.30;14.43;;;;;;;;;;6107892;23;20159;-89
2023/12/17 00:24:36;;;;;;;38.67;15.13;;;;;;;;;;6109825;23;20226;-92
2023/12/17 00:27:41;;;;;;;35.87;15.00;;;;;;;;;;6093165;23;20170;-90
2023/12/17 00:30:46;;;;;;;36.47;14.83;;;;;;;;;;6094210;23;20170;-88
2023/12/17 00:33:53;;;;;;;38.50;15.43;;;;;;;;;;6093987;23;20193;-87
2023/12/17 00:36:59;;;;;;;43.23;14.87;;;;;;;;;;6092309;23;20194;-89
2023/12/17 00:40:05;;;;;;;34.50;14.63;;;;;;;;;;6091259;23;20170;-90
2023/12/17 00:43:10;;;;;;;42.53;15.90;;;;;;;;;;6093624;23;20179;-93
2023/12/17 00:46:15;;;;;;;35.53;14.63;;;;;;;;;;6109716;23;20212;-90
2023/12/17 00:49:22;;;;;;;40.57;16.43;;;;;;;;;;6093368;23;20210;-89
2023/12/17 00:52:27;;;;;;;35.37;14.70;;;;;;;;;;6108276;23;20161;-90
2023/12/17 00:55:32;;;;;;;43.60;14.27;;;;;;;;;;6093308;23;20185;-92
2023/12/17 00:58:37;;;;;;;34.37;14.03;;;;;;;;;;6089788;23;20226;-91
2023/12/17 01:01:42;;;;;;;33.83;14.40;;;;;;;;;;6090630;23;20206;-89
2023/12/17 01:04:49;;;;;;;41.97;14.83;;;;;;;;;;6090236;23;20166;-89
2023/12/17 01:07:54;;;;;;;37.67;14.37;;;;;;;;;;6094794;23;20166;-91
2023/12/17 01:10:59;;;;;;;37.40;14.53;;;;;;;;;;6091679;23;20253;-90
2023/12/17 01:14:04;;;;;;;34.60;14.87;;;;;;;;;;6092747;23;20206;-91
2023/12/17 01:17:09;;;;;;;42.97;14.53;;;;;;;;;;6091122;23;20217;-91
2023/12/17 01:20:15;;;;;;;35.60;14.80;;;;;;;;;;6091865;23;20181;-91
2023/12/17 01:23:21;;;;;;;50.00;14.53;;;;;;;;;;6091357;23;20174;-89
2023/12/17 01:26:29;;;;;;;39.40;16.00;;;;;;;;;;6091801;23;20181;-89
2023/12/17 01:29:33;;;;;;;37.40;15.37;;;;;;;;;;6108803;23;20241;-91
2023/12/17 01:32:39;;;;;;;44.50;15.90;;;;;;;;;;6092438;23;20468;-90
2023/12/17 01:35:45;;;;;;;42.20;14.77;;;;;;;;;;6091273;23;20173;-92
2023/12/17 01:38:50;;;;;;;37.87;15.60;;;;;;;;;;6110470;23;20174;-90
2023/12/17 01:41:55;;;;;;;36.30;14.70;;;;;;;;;;6090630;23;20192;-89
2023/12/17 01:45:00;;;;;;;35.60;15.23;;;;;;;;;;6090146;23;20222;-90
2023/12/17 01:48:05;;;;;;;39.53;14.57;;;;;;;;;;6088508;23;20653;-89
2023/12/17 01:51:12;;;;;;;36.97;14.60;;;;;;;;;;6092428;23;20662;-90
2023/12/17 01:54:18;;;;;;;31.87;13.67;;;;;;;;;;6090362;23;20293;-89
2023/12/17 01:57:23;;;;;;;29.57;13.27;;;;;;;;;;6091626;23;20182;-89
2023/12/17 02:00:28;;;;;;;39.40;15.20;;;;;;;;;;6092451;23;20186;-89
2023/12/17 02:03:33;;;;;;;33.67;14.60;;;;;;;;;;6110209;23;20202;-90
2023/12/17 02:06:39;;;;;;;34.50;14.80;;;;;;;;;;6090982;23;20194;-91
2023/12/17 02:09:44;;;;;;;38.03;16.53;;;;;;;;;;6091319;23;20205;-91
2023/12/17 02:12:50;;;;;;;33.70;13.77;;;;;;;;;;6091218;23;20293;-91
2023/12/17 02:15:55;;;;;;;30.63;13.70;;;;;;;;;;6092381;23;20694;-90
2023/12/17 02:19:01;;;;;;;27.07;12.53;;;;;;;;;;6092613;23;20317;-91
2023/12/17 02:22:07;;;;;;;28.67;13.17;;;;;;;;;;6091224;23;20179;-89
2023/12/17 02:25:13;;;;;;;28.93;12.97;;;;;;;;;;6089647;23;20213;-90
2023/12/17 02:28:19;;;;;;;28.43;13.23;;;;;;;;;;6093335;23;20264;-89
2023/12/17 02:31:24;;;;;;;29.13;13.20;;;;;;;;;;6091516;23;20498;-89
2023/12/17 02:34:29;;;;;;;30.13;12.97;;;;;;;;;;6092596;23;20190;-90
2023/12/17 02:37:34;;;;;;;30.27;13.80;;;;;;;;;;6091995;23;20169;-89
2023/12/17 02:40:40;;;;;;;29.07;13.03;;;;;;;;;;6091924;23;20174;-91
2023/12/17 02:43:45;;;;;;;28.33;12.63;;;;;;;;;;6090427;23;20170;-87
2023/12/17 02:46:51;;;;;;;27.17;12.40;;;;;;;;;;6089594;23;20218;-90
2023/12/17 02:49:55;;;;;;;27.97;12.47;;;;;;;;;;6091204;23;20177;-90
2023/12/17 02:53:00;;;;;;;29.23;13.20;;;;;;;;;;6091600;23;20174;-91
2023/12/17 02:56:07;;;;;;;29.47;12.67;;;;;;;;;;6092118;23;20626;-90
2023/12/17 02:59:14;;;;;;;30.60;13.20;;;;;;;;;;6092837;23;20169;-90
2023/12/17 03:02:19;;;;;;;28.20;13.27;;;;;;;;;;6089510;23;20178;-91
2023/12/17 03:05:25;;;;;;;28.50;13.20;;;;;;;;;;6108923;23;20170;-89
2023/12/17 03:08:29;;;;;;;29.53;13.53;;;;;;;;;;6091656;23;20177;-90
2023/12/17 03:11:36;;;;;;;28.77;12.93;;;;;;;;;;6090167;23;20501;-90
2023/12/17 03:14:41;;;;;;;26.97;12.00;;;;;;;;;;6089527;23;20194;-90
2023/12/17 03:17:45;;;;;;;27.43;12.30;;;;;;;;;;6106939;23;20178;-91
2023/12/17 03:20:50;;;;;;;30.87;13.37;;;;;;;;;;6088778;23;20169;-89
2023/12/17 03:23:55;;;;;;;27.97;12.10;;;;;;;;;;6091957;23;20157;-89
2023/12/17 03:27:02;;;;;;;29.27;13.33;;;;;;;;;;6109422;23;20261;-89
2023/12/17 03:30:08;;;;;;;28.97;13.20;;;;;;;;;;6109123;23;20682;-90
2023/12/17 03:33:13;;;;;;;26.90;12.53;;;;;;;;;;6090623;23;20170;-91
2023/12/17 03:36:18;;;;;;;31.00;13.80;;;;;;;;;;6091096;23;20614;-89
2023/12/17 03:39:23;;;;;;;30.07;12.83;;;;;;;;;;6090082;23;20170;-89
2023/12/17 03:42:29;;;;;;;30.40;13.07;;;;;;;;;;6109041;23;20162;-89
2023/12/17 03:45:35;;;;;;;28.20;13.17;;;;;;;;;;6091072;23;20204;-89
2023/12/17 03:48:40;;;;;;;27.23;12.70;;;;;;;;;;6089926;23;20249;-91
2023/12/17 03:51:45;;;;;;;33.37;14.37;;;;;;;;;;6093713;23;20215;-89
2023/12/17 03:54:50;;;;;;;28.30;13.07;;;;;;;;;;6092038;23;20193;-89
2023/12/17 03:57:56;;;;;;;29.73;12.63;;;;;;;;;;6091835;23;20654;-91
2023/12/17 04:01:02;;;;;;;29.40;13.50;;;;;;;;;;6092325;23;20171;-89
2023/12/17 04:04:06;;;;;;;29.80;13.07;;;;;;;;;;6090905;23;20174;-91
2023/12/17 04:07:12;;;;;;;28.40;13.10;;;;;;;;;;6090580;23;20169;-89
2023/12/17 04:10:17;;;;;;;30.20;13.13;;;;;;;;;;6090156;23;20165;-90
2023/12/17 04:13:23;;;;;;;37.63;14.90;;;;;;;;;;6089318;23;20626;-89
2023/12/17 04:16:28;;;;;;;37.80;15.73;;;;;;;;;;6088635;23;20178;-91
2023/12/17 04:19:34;;;;;;;44.07;16.80;;;;;;;;;;6091618;23;20170;-91
2023/12/17 04:22:39;;;;;;;37.10;15.13;;;;;;;;;;6092978;23;20158;-90
2023/12/17 04:25:43;;;;;;;38.67;14.97;;;;;;;;;;6092538;23;20309;-91
2023/12/17 04:28:49;;;;;;;37.17;13.97;;;;;;;;;;6092591;23;20170;-91
2023/12/17 04:31:55;;;;;;;31.80;13.97;;;;;;;;;;6107981;23;20174;-91
2023/12/17 04:35:00;;;;;;;44.13;15.20;;;;;;;;;;6091976;23;20185;-90
2023/12/17 04:38:05;;;;;;;32.17;13.83;;;;;;;;;;6092561;23;20166;-89
2023/12/17 04:41:10;;;;;;;42.60;15.90;;;;;;;;;;6090797;23;20178;-90
2023/12/17 04:44:16;;;;;;;36.13;15.13;;;;;;;;;;6093028;23;20195;-90
2023/12/17 04:47:21;;;;;;;41.63;15.43;;;;;;;;;;6091923;23;20236;-90
2023/12/17 04:50:27;;;;;;;45.47;16.47;;;;;;;;;;6090544;23;20181;-90
2023/12/17 04:53:32;;;;;;;44.97;15.10;;;;;;;;;;6090744;23;20190;-90
2023/12/17 04:56:38;;;;;;;45.17;15.43;;;;;;;;;;6093184;23;20238;-89
2023/12/17 04:59:44;;;;;;;45.33;15.30;;;;;;;;;;6092225;23;20174;-89
2023/12/17 05:02:49;;;;;;;49.00;17.03;;;;;;;;;;6090018;23;20714;-89
2023/12/17 05:05:54;;;;;;;45.17;16.73;;;;;;;;;;6091283;23;20157;-90
2023/12/17 05:08:59;;;;;;;55.20;17.23;;;;;;;;;;6091562;23;20170;-92
2023/12/17 05:12:04;;;;;;;46.13;16.70;;;;;;;;;;6106721;23;20174;-91
2023/12/17 05:15:11;;;;;;;46.83;16.70;;;;;;;;;;6091781;23;20194;-90
2023/12/17 05:18:16;;;;;;;45.47;17.13;;;;;;;;;;6107192;23;20614;-90
2023/12/17 05:21:22;;;;;;;50.10;17.00;;;;;;;;;;6105793;23;20169;-89
2023/12/17 05:24:27;;;;;;;48.67;16.43;;;;;;;;;;6090954;23;20173;-91
2023/12/17 05:27:33;;;;;;;43.53;16.67;;;;;;;;;;6090813;23;20170;-90
2023/12/17 05:30:39;;;;;;;46.27;16.77;;;;;;;;;;6089375;23;20510;-89
2023/12/17 05:33:46;;;;;;;47.43;17.17;;;;;;;;;;6090401;23;20253;-91
2023/12/17 05:36:51;;;;;;;44.80;15.77;;;;;;;;;;6091190;23;20298;-90
2023/12/17 05:39:56;;;;;;;50.77;16.90;;;;;;;;;;6089757;23;20186;-90
2023/12/17 05:43:01;;;;;;;46.90;17.47;;;;;;;;;;6107430;23;20254;-91
2023/12/17 05:46:07;;;;;;;46.20;16.57;;;;;;;;;;6088849;23;20197;-90
2023/12/17 05:49:12;;;;;;;47.17;16.33;;;;;;;;;;6090945;23;20169;-91
2023/12/17 05:52:19;;;;;;;45.93;16.17;;;;;;;;;;6089449;23;20630;-90
2023/12/17 05:55:24;;;;;;;50.37;16.87;;;;;;;;;;6091174;23;20260;-89
2023/12/17 05:58:29;;;;;;;49.50;17.43;;;;;;;;;;6090703;23;20306;-91
2023/12/17 06:01:36;;;;;;;46.57;16.87;;;;;;;;;;6111563;23;20252;-90
2023/12/17 06:04:41;;;;;;;46.83;16.67;;;;;;;;;;6107171;23;20190;-91
2023/12/17 06:07:46;;;;;;;45.13;16.57;;;;;;;;;;6106660;23;20203;-91
2023/12/17 06:10:51;;;;;;;50.60;15.87;;;;;;;;;;6090267;23;20257;-90
2023/12/17 06:13:56;;;;;;;45.37;16.93;;;;;;;;;;6091363;23;20174;-90
2023/12/17 06:17:03;;;;;;;42.77;16.33;;;;;;;;;;6108209;23;20178;-90
2023/12/17 06:20:09;;;;;;;46.80;16.40;;;;;;;;;;6090223;23;20169;-89
2023/12/17 06:23:14;;;;;;;42.37;15.13;;;;;;;;;;6105674;23;20169;-90
2023/12/17 06:26:20;;;;;;;44.17;16.33;;;;;;;;;;6104960;23;20261;-89
2023/12/17 06:29:25;;;;;;;44.77;16.00;;;;;;;;;;6090362;23;20291;-89
2023/12/17 06:32:31;;;;;;;43.13;16.00;;;;;;;;;;6089965;23;20170;-89
2023/12/17 06:35:36;;;;;;;42.03;15.70;;;;;;;;;;6090087;23;20206;-90
2023/12/17 06:38:41;;;;;;;42.10;16.13;;;;;;;;;;6107844;23;20170;-90
2023/12/17 06:41:47;;;;;;;41.77;15.20;;;;;;;;;;6093172;23;20178;-91
2023/12/17 06:44:54;;;;;;;40.60;15.53;;;;;;;;;;6096402;23;20177;-90
2023/12/17 06:48:01;;;;;;;41.83;15.03;;;;;;;;;;6111447;23;20166;-90
2023/12/17 06:51:06;;;;;;;43.83;16.63;;;;;;;;;;6093028;23;20161;-89
2023/12/17 06:54:12;;;;;;;41.47;15.70;;;;;;;;;;6093087;23;20179;-91
2023/12/17 06:57:17;;;;;;;46.77;16.77;;;;;;;;;;6093809;23;20173;-91
2023/12/17 07:00:26;;;;;;;48.33;17.97;;;;;;;;;;6095146;23;20215;-91
2023/12/17 07:03:33;;;;;;;42.87;15.13;;;;;;;;;;6109369;23;20194;-90
2023/12/17 07:06:38;;;;;;;43.63;16.73;;;;;;;;;;6110277;23;20187;-92
2023/12/17 07:09:43;;;;;;;41.10;15.13;;;;;;;;;;6090930;23;20162;-91
2023/12/17 07:12:48;;;;;;;42.60;15.47;;;;;;;;;;6108628;23;20166;-91
2023/12/17 07:15:57;;;;;;;40.10;15.33;;;;;;;;;;6092123;23;20197;-90
2023/12/17 07:19:03;;;;;;;47.40;15.13;;;;;;;;;;6090085;23;20174;-90
2023/12/17 07:22:09;;;;;;;41.83;15.63;;;;;;;;;;6089587;23;20177;-90
2023/12/17 07:25:14;;;;;;;44.70;15.57;;;;;;;;;;6090724;23;20172;-89
2023/12/17 07:28:19;;;;;;;38.73;14.80;;;;;;;;;;6092150;23;20214;-90
2023/12/17 07:31:24;;;;;;;41.60;14.83;;;;;;;;;;6092235;23;20166;-91
2023/12/17 07:34:30;;;;;;;43.87;17.17;;;;;;;;;;6095887;23;20169;-89
2023/12/17 07:37:35;;;;;;;41.60;14.93;;;;;;;;;;6095429;23;20173;-89
2023/12/17 07:40:41;;;;;;;42.20;15.07;;;;;;;;;;6109509;23;20250;-95
2023/12/17 07:47:10;;;;;;;39.53;13.30;;;;;;;;;;6099635;23;20186;-88
2023/12/17 07:50:19;;;;;;;44.90;14.67;;;;;;;;;;6100289;23;20194;-90
2023/12/17 07:53:25;;;;;;;45.63;14.97;;;;;;;;;;6115026;23;20166;-91
2023/12/17 07:56:30;;;;;;;40.17;14.20;;;;;;;;;;6099812;23;20222;-89
2023/12/17 07:59:36;;;;;;;38.83;13.70;;;;;;;;;;6097586;23;20175;-90
2023/12/17 08:02:41;;;;;;;40.57;13.30;;;;;;;;;;6097777;23;20610;-90
2023/12/17 08:05:48;;;;;;;34.90;12.93;;;;;;;;;;6097106;23;20169;-91
2023/12/17 08:08:54;;;;;;;37.30;12.77;;;;;;;;;;6094423;23;20265;-89
2023/12/17 08:11:59;;;;;;;37.43;12.97;;;;;;;;;;6111905;23;20162;-91
2023/12/17 08:15:05;;;;;;;40.97;13.53;;;;;;;;;;6096847;23;20243;-89
2023/12/17 08:18:10;;;;;;;34.83;12.17;;;;;;;;;;6114349;23;20170;-89
2023/12/17 08:21:18;;;;;;;43.47;12.83;;;;;;;;;;6112245;23;20226;-89
2023/12/17 08:24:23;;;;;;;39.47;13.40;;;;;;;;;;6096362;23;20174;-90
2023/12/17 08:27:32;;;;;;;35.83;12.17;;;;;;;;;;6099367;23;20206;-88
2023/12/17 08:30:40;;;;;;;39.37;15.27;;;;;;;;;;6117441;23;20170;-91
2023/12/17 08:33:52;;;;;;;35.20;14.13;;;;;;;;;;6114365;23;20190;-89
2023/12/17 08:36:59;;;;;;;37.47;14.40;;;;;;;;;;6097286;23;20242;-91
2023/12/17 08:40:05;;;;;;;33.43;12.17;;;;;;;;;;6114261;23;20450;-91
2023/12/17 08:43:14;;;;;;;34.17;13.27;;;;;;;;;;6095462;23;20173;-90
2023/12/17 08:46:19;;;;;;;35.50;13.37;;;;;;;;;;6098508;23;20174;-90
2023/12/17 08:49:25;;;;;;;33.57;12.53;;;;;;;;;;6097444;23;20678;-92
2023/12/17 08:52:33;;;;;;;36.57;13.27;;;;;;;;;;6097692;23;20206;-90
2023/12/17 08:55:41;;;;;;;37.77;13.40;;;;;;;;;;6115568;23;20524;-89
2023/12/17 08:58:47;;;;;;;39.97;14.30;;;;;;;;;;6097919;23;20173;-91
2023/12/17 09:01:53;;;;;;;39.20;13.20;;;;;;;;;;6096544;23;20170;-88
2023/12/17 09:05:02;;;;;;;38.23;12.90;;;;;;;;;;6115301;23;20242;-91
2023/12/17 09:08:12;;;;;;;38.17;13.67;;;;;;;;;;6095037;23;20157;-90
2023/12/17 09:11:18;;;;;;;35.07;12.13;;;;;;;;;;6096512;23;20174;-90
2023/12/17 09:14:27;;;;;;;35.47;12.67;;;;;;;;;;6095246;23;20170;-89
2023/12/17 09:17:33;;;;;;;36.30;12.60;;;;;;;;;;6115556;23;20158;-92
2023/12/17 09:20:39;;;;;;;36.17;12.90;;;;;;;;;;6113362;23;20222;-90
2023/12/17 09:23:46;;;;;;;36.00;12.80;;;;;;;;;;6111270;23;20173;-89
2023/12/17 09:26:57;;;;;;;37.20;12.83;;;;;;;;;;6079823;23;20666;-90
2023/12/17 09:30:04;;;;;;;37.27;13.13;;;;;;;;;;6064295;23;20233;-90
2023/12/17 09:33:10;;;;;;;30.93;12.07;;;;;;;;;;6063753;23;20174;-91
2023/12/17 09:36:17;;;;;;;37.57;12.73;;;;;;;;;;6060225;23;20242;-89
2023/12/17 09:39:23;;;;;;;35.10;12.10;;;;;;;;;;6061297;23;20642;-89
2023/12/17 09:42:29;;;;;;;32.93;12.23;;;;;;;;;;6075759;23;20178;-90
2023/12/17 09:45:36;;;;;;;36.83;12.83;;;;;;;;;;6078371;23;20183;-89
2023/12/17 09:48:41;;;;;;;36.30;13.03;;;;;;;;;;6065135;23;20176;-91
2023/12/17 09:51:49;;;;;;;34.13;12.73;;;;;;;;;;6064766;23;20171;-89
2023/12/17 09:54:56;;;;;;;34.37;12.23;;;;;;;;;;6063361;23;20502;-91
2023/12/17 09:58:03;;;;;;;32.43;12.97;;;;;;;;;;6062022;23;20182;-90
2023/12/17 10:01:08;;;;;;;31.60;12.37;;;;;;;;;;6080122;23;20250;-90
2023/12/17 10:04:14;;;;;;;37.73;13.30;;;;;;;;;;6064586;23;20174;-91
2023/12/17 10:07:19;;;;;;;31.87;12.67;;;;;;;;;;6062760;23;20171;-89
2023/12/17 10:10:25;;;;;;;33.57;13.43;;;;;;;;;;6081989;23;20173;-90
2023/12/17 10:13:30;;;;;;;40.27;14.90;;;;;;;;;;6065727;23;20182;-92
2023/12/17 10:16:36;;;;;;;34.90;13.63;;;;;;;;;;6065266;23;20246;-91
2023/12/17 10:19:42;;;;;;;39.33;13.87;;;;;;;;;;6080924;23;20166;-90
2023/12/17 10:23:00;;;;;;;40.70;14.40;;;;;;;;;;6066389;23;20232;-90
2023/12/17 10:26:06;;;;;;;37.93;13.50;;;;;;;;;;6087912;23;20253;-90
2023/12/17 10:29:12;;;;;;;37.90;14.93;;;;;;;;;;6109994;23;20165;-92
2023/12/17 10:32:19;;;;;;;42.83;14.83;;;;;;;;;;6095943;23;20166;-89
2023/12/17 10:35:25;;;;;;;36.30;14.63;;;;;;;;;;6097725;23;20270;-90
2023/12/17 10:38:30;;;;;;;40.80;14.70;;;;;;;;;;6093618;23;20170;-90
2023/12/17 10:41:38;;;;;;;35.13;14.50;;;;;;;;;;6109988;23;20174;-91
2023/12/17 10:44:45;;;;;;;41.33;15.27;;;;;;;;;;6094053;23;20207;-93
2023/12/17 10:47:52;;;;;;;48.23;15.67;;;;;;;;;;6094779;23;20174;-91
2023/12/17 10:50:58;;;;;;;38.50;15.00;;;;;;;;;;6096332;23;20270;-91
2023/12/17 10:54:03;;;;;;;41.17;15.43;;;;;;;;;;6095536;23;20173;-90
2023/12/17 10:57:13;;;;;;;38.93;15.17;;;;;;;;;;6095242;23;20193;-90
2023/12/17 11:00:23;;;;;;;39.33;14.60;;;;;;;;;;6113823;23;20215;-89
2023/12/17 11:03:33;;;;;;;40.87;15.63;;;;;;;;;;6100343;23;20643;-90
2023/12/17 11:06:39;;;;;;;40.67;15.87;;;;;;;;;;6113496;23;20170;-90
2023/12/17 11:09:44;;;;;;;42.83;16.40;;;;;;;;;;6094637;23;20165;-92
2023/12/17 11:12:51;;;;;;;42.30;14.90;;;;;;;;;;6108969;23;20464;-90
2023/12/17 11:15:56;;;;;;;40.53;16.37;;;;;;;;;;6111570;23;20169;-90
2023/12/17 11:19:01;;;;;;;42.30;16.47;;;;;;;;;;6095402;23;20174;-90
2023/12/17 11:22:09;;;;;;;41.17;16.27;;;;;;;;;;6113837;23;20170;-89
2023/12/17 11:25:14;;;;;;;43.20;16.73;;;;;;;;;;6093804;23;20192;-90
2023/12/17 11:28:25;;;;;;;43.13;16.77;;;;;;;;;;6111056;23;20203;-91
2023/12/17 11:31:31;;;;;;;42.80;16.57;;;;;;;;;;6096262;23;20156;-90
2023/12/17 11:34:38;;;;;;;45.27;15.63;;;;;;;;;;6096708;23;20173;-90
2023/12/17 11:37:44;;;;;;;41.73;16.37;;;;;;;;;;6111653;23;20662;-89
2023/12/17 11:40:49;;;;;;;40.47;14.43;;;;;;;;;;6111195;23;20234;-90
2023/12/17 11:43:55;;;;;;;43.60;14.90;;;;;;;;;;6110710;23;20174;-91
2023/12/17 11:47:01;;;;;;;39.97;15.30;;;;;;;;;;6112991;23;20218;-92
2023/12/17 11:50:07;;;;;;;41.63;16.20;;;;;;;;;;6094347;23;20173;-89
2023/12/17 11:53:13;;;;;;;41.07;16.07;;;;;;;;;;6095423;23;20166;-93
2023/12/17 11:56:28;;;;;;;44.97;17.13;;;;;;;;;;6093765;23;20242;-90
2023/12/17 11:59:35;;;;;;;43.23;16.00;;;;;;;;;;6095059;23;20170;-91
2023/12/17 12:02:40;;;;;;;36.83;14.83;;;;;;;;;;6094630;23;20166;-92
2023/12/17 12:05:47;;;;;;;41.57;15.83;;;;;;;;;;6095457;23;20213;-91
2023/12/17 12:09:20;;;;;;;40.73;16.23;;;;;;;;;;6084492;23;20157;-91
2023/12/17 12:12:42;;;;;;;39.13;17.97;;;;;;;;;;6116321;23;20407;-90
2023/12/17 12:15:49;;;;;;;36.28;15.52;;;;;;;;;;6116558;23;20479;-92
2023/12/17 12:19:04;;;;;;;40.10;15.52;;;;;;;;;;6099596;23;20219;-90
2023/12/17 12:22:10;;;;;;;44.55;16.77;;;;;;;;;;6116934;23;20217;-90
2023/12/17 12:25:20;;;;;;;38.95;15.02;;;;;;;;;;6101153;23;20201;-92
2023/12/17 12:28:29;;;;;;;42.00;15.83;;;;;;;;;;6116476;23;20154;-91
2023/12/17 12:31:36;;;;;;;40.42;16.30;;;;;;;;;;6097973;23;20173;-89
2023/12/17 12:34:45;;;;;;;47.05;18.95;;;;;;;;;;6117816;23;20242;-90
2023/12/17 12:37:50;;;;;;;37.77;15.23;;;;;;;;;;6117086;23;20222;-92
2023/12/17 12:40:57;;;;;;;53.20;20.23;;;;;;;;;;6114168;23;20174;-90
2023/12/17 12:44:02;;;;;;;42.30;15.77;;;;;;;;;;6100527;23;20194;-88
2023/12/17 12:47:17;;;;;;;38.67;14.90;;;;;;;;;;6114467;23;20618;-90
2023/12/17 12:50:23;;;;;;;39.50;14.63;;;;;;;;;;6109938;23;20181;-90
2023/12/17 12:53:28;;;;;;;39.43;14.60;;;;;;;;;;6095031;23;20199;-91
2023/12/17 12:56:37;;;;;;;40.07;15.40;;;;;;;;;;6097673;23;20197;-89
2023/12/17 12:59:42;;;;;;;39.70;14.93;;;;;;;;;;6098628;23;20161;-90
2023/12/17 13:02:55;;;;;;;44.20;15.80;;;;;;;;;;6109944;23;20174;-91
2023/12/17 13:06:01;;;;;;;38.93;14.53;;;;;;;;;;6108642;23;20169;-89
2023/12/17 13:09:08;;;;;;;39.47;15.50;;;;;;;;;;6107043;23;20169;-88
2023/12/17 13:12:14;;;;;;;39.10;15.37;;;;;;;;;;6109474;23;20182;-90
2023/12/17 13:15:19;;;;;;;39.97;15.23;;;;;;;;;;6110569;23;20213;-90
2023/12/17 13:18:25;;;;;;;39.73;13.73;;;;;;;;;;6091993;23;20197;-93
2023/12/17 13:21:31;;;;;;;39.67;15.37;;;;;;;;;;6095236;23;20170;-90
2023/12/17 13:24:36;;;;;;;33.43;13.60;;;;;;;;;;6093844;23;20190;-91
2023/12/17 13:27:42;;;;;;;36.80;13.60;;;;;;;;;;6111902;23;20182;-90
2023/12/17 13:30:47;;;;;;;36.90;14.50;;;;;;;;;;6111206;23;20885;-89
2023/12/17 13:33:54;;;;;;;35.13;13.10;;;;;;;;;;6095238;23;20166;-87
2023/12/17 13:36:59;;;;;;;36.83;14.40;;;;;;;;;;6113570;23;20185;-89
2023/12/17 13:40:05;;;;;;;46.83;16.07;;;;;;;;;;6095045;23;20169;-90
2023/12/17 13:43:10;;;;;;;40.40;14.37;;;;;;;;;;6093817;23;20239;-87
2023/12/17 13:46:15;;;;;;;41.80;14.67;;;;;;;;;;6113955;23;20247;-89
2023/12/17 13:49:23;;;;;;;43.43;15.30;;;;;;;;;;6094445;23;20203;-91
2023/12/17 13:52:30;;;;;;;44.90;14.67;;;;;;;;;;6095311;23;20170;-89
2023/12/17 13:55:35;;;;;;;40.23;14.73;;;;;;;;;;6111001;23;20261;-89
2023/12/17 13:58:40;;;;;;;41.03;14.53;;;;;;;;;;6112864;23;20625;-86
2023/12/17 14:01:48;;;;;;;52.97;18.43;;;;;;;;;;6114654;23;20170;-90
2023/12/17 14:04:55;;;;;;;41.87;15.33;;;;;;;;;;6096941;23;20234;-89
2023/12/17 14:08:01;;;;;;;42.73;15.47;;;;;;;;;;6114231;23;20166;-87
2023/12/17 14:11:06;;;;;;;46.27;15.47;;;;;;;;;;6113571;23;20166;-89
2023/12/17 14:14:12;;;;;;;41.77;14.10;;;;;;;;;;6095225;23;20619;-89
2023/12/17 14:17:17;;;;;;;41.17;14.93;;;;;;;;;;6097662;23;20204;-88
2023/12/17 14:20:24;;;;;;;38.30;13.53;;;;;;;;;;6096880;23;20229;-92
2023/12/17 14:23:29;;;;;;;41.53;14.43;;;;;;;;;;6101971;23;20169;-88
2023/12/17 14:26:34;;;;;;;42.70;14.07;;;;;;;;;;6116301;23;20192;-89
2023/12/17 14:29:40;;;;;;;41.57;14.90;;;;;;;;;;6096453;23;20174;-89
2023/12/17 14:32:44;;;;;;;42.97;14.73;;;;;;;;;;6096587;23;20186;-90
2023/12/17 14:35:51;;;;;;;42.47;14.73;;;;;;;;;;6114385;23;20182;-88
2023/12/17 14:38:57;;;;;;;44.97;15.87;;;;;;;;;;6096387;23;20193;-88
2023/12/17 14:42:02;;;;;;;44.93;14.80;;;;;;;;;;6112304;23;20219;-88
2023/12/17 14:45:08;;;;;;;39.03;14.37;;;;;;;;;;6094675;23;20170;-89
2023/12/17 14:48:15;;;;;;;44.37;15.17;;;;;;;;;;6097342;23;20158;-87
2023/12/17 14:51:23;;;;;;;47.33;15.20;;;;;;;;;;6095023;23;20221;-88
2023/12/17 14:54:29;;;;;;;43.43;14.90;;;;;;;;;;6109755;23;20480;-87
2023/12/17 14:57:37;;;;;;;44.67;15.67;;;;;;;;;;6093932;23;20181;-88
2023/12/17 15:00:44;;;;;;;46.33;15.10;;;;;;;;;;6117915;23;20199;-88
2023/12/17 15:03:49;;;;;;;45.00;15.63;;;;;;;;;;6114797;23;20174;-90
2023/12/17 15:06:57;;;;;;;49.40;15.47;;;;;;;;;;6098628;23;20198;-89
2023/12/17 15:10:05;;;;;;;52.10;15.90;;;;;;;;;;6115543;23;20199;-90
2023/12/17 15:16:31;;;;;;;48.13;15.43;;;;;;;;;;6098331;23;20183;-90
2023/12/17 15:19:36;;;;;;;44.97;14.73;;;;;;;;;;6111877;23;20219;-90
2023/12/17 15:22:43;;;;;;;46.73;15.20;;;;;;;;;;6112764;23;20174;-89
2023/12/17 15:25:48;;;;;;;47.67;14.43;;;;;;;;;;6093860;23;20190;-89
2023/12/17 15:28:53;;;;;;;51.60;17.57;;;;;;;;;;6096542;23;20622;-90
2023/12/17 15:31:59;;;;;;;50.13;15.87;;;;;;;;;;6095174;23;20501;-89
2023/12/17 15:35:04;;;;;;;52.67;17.50;;;;;;;;;;6113403;23;20508;-89
2023/12/17 15:38:10;;;;;;;61.83;16.97;;;;;;;;;;6094895;23;20411;-89
2023/12/17 15:41:19;;;;;;;55.57;17.23;;;;;;;;;;6112190;23;20534;-87
2023/12/17 15:44:24;;;;;;;57.43;17.73;;;;;;;;;;6095432;23;20166;-90
2023/12/17 15:47:34;;;;;;;53.30;16.93;;;;;;;;;;6091136;23;20174;-91
2023/12/17 15:50:39;;;;;;;58.60;16.70;;;;;;;;;;6091200;23;20178;-91
2023/12/17 15:53:45;;;;;;;55.60;16.33;;;;;;;;;;6090575;23;20169;-88
2023/12/17 15:56:51;;;;;;;46.23;15.43;;;;;;;;;;6090523;23;20170;-88
2023/12/17 15:59:56;;;;;;;56.53;16.47;;;;;;;;;;6092722;23;20219;-89
2023/12/17 16:03:01;;;;;;;48.93;15.80;;;;;;;;;;6091720;23;20194;-89
2023/12/17 16:06:09;;;;;;;54.23;15.00;;;;;;;;;;6108798;23;20218;-88
2023/12/17 16:09:16;;;;;;;49.37;15.00;;;;;;;;;;6092615;23;20211;-89
2023/12/17 16:12:34;;;;;;;38.60;13.03;;;;;;;;;;6095611;23;20162;-86
2023/12/17 16:15:39;;;;;;;51.03;16.80;;;;;;;;;;6109528;23;20361;-88
2023/12/17 16:18:45;;;;;;;58.73;17.43;;;;;;;;;;6109914;23;20197;-91
2023/12/17 16:21:52;;;;;;;49.70;16.43;;;;;;;;;;6110634;23;20213;-88
2023/12/17 16:25:03;;;;;;;45.37;15.90;;;;;;;;;;6091688;23;20304;-91
2023/12/17 16:28:10;;;;;;;56.67;16.83;;;;;;;;;;6091929;23;20207;-93
2023/12/17 16:31:17;;;;;;;47.63;16.63;;;;;;;;;;6092055;23;20180;-87
2023/12/17 16:34:23;;;;;;;59.57;17.40;;;;;;;;;;6109539;23;20226;-89
2023/12/17 16:37:29;;;;;;;48.03;16.53;;;;;;;;;;6112746;23;20275;-89
2023/12/17 16:40:36;;;;;;;54.40;19.63;;;;;;;;;;6094630;23;20178;-89
2023/12/17 16:43:41;;;;;;;61.40;17.80;;;;;;;;;;6093606;23;20161;-89
2023/12/17 16:46:47;;;;;;;50.10;15.80;;;;;;;;;;6110463;23;20173;-88
2023/12/17 16:49:52;;;;;;;47.80;14.83;;;;;;;;;;6095159;23;20221;-88
2023/12/17 16:52:58;;;;;;;48.77;16.07;;;;;;;;;;6110897;23;20222;-88
2023/12/17 16:56:05;;;;;;;50.37;15.20;;;;;;;;;;6110197;23;20174;-88
2023/12/17 16:59:11;;;;;;;47.70;16.40;;;;;;;;;;6106677;23;20198;-90
2023/12/17 17:02:16;;;;;;;48.33;15.67;;;;;;;;;;6093570;23;20158;-89
2023/12/17 17:05:22;;;;;;;44.97;15.80;;;;;;;;;;6093529;23;20181;-89
2023/12/17 17:08:28;;;;;;;49.57;16.13;;;;;;;;;;6107995;23;20186;-90
2023/12/17 17:11:34;;;;;;;49.80;15.60;;;;;;;;;;6092133;23;20170;-90
2023/12/17 17:14:41;;;;;;;50.53;14.30;;;;;;;;;;6108822;23;20177;-90
2023/12/17 17:17:46;;;;;;;43.17;13.60;;;;;;;;;;6093061;23;20263;-89
2023/12/17 17:20:56;;;;;;;44.57;13.90;;;;;;;;;;6093539;23;20194;-90
2023/12/17 17:24:01;;;;;;;51.43;14.60;;;;;;;;;;6108057;23;20261;-90
2023/12/17 17:27:09;;;;;;;53.77;15.67;;;;;;;;;;6094178;23;20183;-91
2023/12/17 17:30:16;;;;;;;60.50;15.80;;;;;;;;;;6111185;23;20670;-90
2023/12/17 17:33:21;;;;;;;58.23;15.80;;;;;;;;;;6110104;23;20177;-89
2023/12/17 17:36:26;;;;;;;56.53;14.90;;;;;;;;;;6110394;23;20186;-91
2023/12/17 17:39:32;;;;;;;57.07;16.03;;;;;;;;;;6092945;23;20197;-91
2023/12/17 17:42:39;;;;;;;63.63;15.80;;;;;;;;;;6106943;23;20170;-90
2023/12/17 17:45:44;;;;;;;56.10;16.40;;;;;;;;;;6094435;23;20157;-89
2023/12/17 17:48:50;;;;;;;62.50;16.63;;;;;;;;;;6092932;23;20173;-90
2023/12/17 17:51:55;;;;;;;48.13;15.80;;;;;;;;;;6092974;23;20174;-88
2023/12/17 17:55:00;;;;;;;44.50;15.57;;;;;;;;;;6092201;23;20190;-87
2023/12/17 17:58:07;;;;;;;45.17;15.30;;;;;;;;;;6093110;23;20193;-91
2023/12/17 18:01:16;;;;;;;50.03;16.10;;;;;;;;;;6091619;23;20173;-90
2023/12/17 18:04:21;;;;;;;50.30;15.47;;;;;;;;;;6112429;23;20181;-90
2023/12/17 18:07:27;;;;;;;51.40;16.63;;;;;;;;;;6111385;23;20211;-88
2023/12/17 18:10:32;;;;;;;42.07;14.97;;;;;;;;;;6094012;23;20178;-89